Search for airport 
image banner adimage banner adimage banner ad
image banner ad

KEST - Estherville Muni

Located in Estherville, United States

ICAO - EST, IATA - EST

Data provided by Airmate  

General information

Coordinates: N43°24'27" W94°44'47"
Elevation is 1319 feet MSL.
Magnetic variation is 01° East
View others Airports in Iowa

Operational data

Special qualification required
Current time UTC:
Current local time:
Weather
METAR: KEST 181652Z AUTO VRB04KT 10SM CLR 29/10 A2986 RMK AO2 SLP101 T02940100
View NOTAMs / SUP AIP / TFR affecting this airport [VIEW]
Communications frequencies: [VIEW]

Runways:

RWY identifierQFULength (ft)Width (ft)SurfaceLDA (ft)
0673°298990GRASS
24253°298990GRASS
16170°479775CONC
34350°479775CONC

Airport contact information

Address: Estherville United States

Other aviation service providers

Flight schools

Estherville Aviation

Estherville Aviation

Satellite view of KEST